Time;durP1;ratioP1;P1;durP2;ratioP2;P2;SDS_P1;SDS_P2;PMS_P1;PMS_P2;Temp;Humidity;BMP_temperature;BMP_pressure;BME280_temperature;BME280_humidity;BME280_pressure;Samples;Min_cycle;Max_cycle;Signal;HPM_P1;HPM_P2
2022/11/08 00:02:17;;;;;;;11.85;3.78;;;;;;;11.94;88.80;100862.31;5053629;28;20114;-60
2022/11/08 00:04:43;;;;;;;10.10;3.75;;;;;;;11.92;88.98;100855.38;5052559;28;20025;-60
2022/11/08 00:15:23;;;;;;;11.20;3.90;;;;;;;11.85;89.19;100854.91;5050624;28;20189;-60
2022/11/08 00:17:50;;;;;;;10.07;3.92;;;;;;;11.80;89.72;100844.56;5036742;28;20519;-60
2022/11/08 00:20:18;;;;;;;10.77;3.88;;;;;;;11.74;89.99;100844.13;5032283;28;20052;-60
2022/11/08 00:22:46;;;;;;;8.18;4.03;;;;;;;11.74;90.35;100850.31;5035905;28;20033;-60
2022/11/08 00:25:11;;;;;;;10.65;3.53;;;;;;;11.69;90.36;100846.25;5037659;28;20040;-60
2022/11/08 00:27:37;;;;;;;10.07;3.63;;;;;;;11.67;90.45;100850.81;5050899;28;20033;-60
2022/11/08 00:30:03;;;;;;;12.27;3.85;;;;;;;11.66;90.75;100857.97;5048227;28;20049;-60
2022/11/08 00:32:28;;;;;;;13.68;4.63;;;;;;;11.60;90.41;100845.06;5032595;28;20080;-60
2022/11/08 00:34:54;;;;;;;10.35;3.28;;;;;;;11.60;90.82;100853.91;5026747;28;20044;-60
2022/11/08 00:37:21;;;;;;;12.70;4.28;;;;;;;11.62;90.86;100844.94;5023113;28;20055;-60
2022/11/08 00:39:48;;;;;;;8.55;3.25;;;;;;;11.59;91.17;100848.69;5040537;28;20033;-60
2022/11/08 00:42:14;;;;;;;12.95;3.78;;;;;;;11.57;91.12;100845.25;5034171;28;20029;-60
2022/11/08 00:44:42;;;;;;;13.82;3.75;;;;;;;11.57;91.30;100843.44;5040663;28;20473;-60
2022/11/08 00:47:08;;;;;;;8.70;3.53;;;;;;;11.51;91.00;100835.03;5040619;28;20033;-60
2022/11/08 00:49:34;;;;;;;12.05;3.83;;;;;;;11.51;91.18;100841.19;5044843;28;20036;-60
2022/11/08 00:52:02;;;;;;;9.60;4.07;;;;;;;11.49;91.46;100840.44;5036625;28;20033;-60
2022/11/08 00:54:28;;;;;;;12.90;4.27;;;;;;;11.47;91.44;100837.03;5032485;28;20439;-60
2022/11/08 00:56:56;;;;;;;10.63;3.50;;;;;;;11.46;91.58;100837.97;5041761;28;20390;-60
2022/11/08 00:59:21;;;;;;;13.52;4.03;;;;;;;11.48;91.82;100827.25;5034750;28;20033;-60
2022/11/08 01:01:47;;;;;;;14.18;4.72;;;;;;;11.43;91.67;100824.88;5038868;28;20400;-60
2022/11/08 01:04:15;;;;;;;7.90;3.58;;;;;;;11.41;91.73;100815.28;5048826;28;20044;-60
2022/11/08 01:06:41;;;;;;;10.15;3.92;;;;;;;11.39;92.18;100823.38;5043959;28;20068;-60
2022/11/08 01:09:10;;;;;;;8.45;3.53;;;;;;;11.34;92.19;100829.00;5040533;28;20493;-60
2022/11/08 01:11:37;;;;;;;10.15;3.67;;;;;;;11.32;92.35;100817.63;5040575;28;20402;-61
2022/11/08 01:14:02;;;;;;;11.52;3.95;;;;;;;11.30;92.98;100821.34;5048532;28;20020;-60
2022/11/08 01:16:30;;;;;;;12.82;3.97;;;;;;;11.27;92.77;100811.75;5043064;28;20232;-60
2022/11/08 01:19:00;;;;;;;13.33;4.20;;;;;;;11.33;92.56;100821.97;5036781;28;20392;-60
2022/11/08 01:21:26;;;;;;;10.75;3.58;;;;;;;11.32;92.98;100806.09;5039529;28;20021;-60
2022/11/08 01:23:53;;;;;;;8.85;3.30;;;;;;;11.31;92.87;100823.03;5034882;28;20040;-60
2022/11/08 01:26:23;;;;;;;8.75;4.10;;;;;;;11.32;92.98;100822.06;5045207;28;20029;-60
2022/11/08 01:28:49;;;;;;;11.98;4.45;;;;;;;11.34;92.74;100805.03;5036307;28;20024;-60
2022/11/08 01:31:32;;;;;;;9.57;3.42;;;;;;;11.28;92.80;100804.59;5046430;28;20044;-60
2022/11/08 01:33:58;;;;;;;8.45;4.10;;;;;;;11.30;92.99;100808.03;5052254;28;20033;-60
2022/11/08 01:36:26;;;;;;;8.98;4.35;;;;;;;11.27;93.04;100806.41;5051894;28;20025;-60
2022/11/08 01:38:53;;;;;;;12.65;4.47;;;;;;;11.27;93.13;100808.22;5040446;28;20036;-60
2022/11/08 01:41:23;;;;;;;10.38;4.40;;;;;;;11.25;93.18;100802.16;5033246;28;20029;-61
2022/11/08 01:43:50;;;;;;;11.85;4.22;;;;;;;11.23;93.15;100794.25;5036855;28;20037;-60
2022/11/08 01:46:22;;;;;;;11.30;4.70;;;;;;;11.20;93.46;100783.81;5031494;28;20485;-60
2022/11/08 01:48:58;;;;;;;11.73;4.70;;;;;;;11.22;93.19;100771.25;5030857;28;20033;-60
2022/11/08 01:51:34;;;;;;;12.05;4.97;;;;;;;11.21;93.40;100777.53;5042607;28;20025;-60
2022/11/08 01:54:04;;;;;;;13.98;4.68;;;;;;;11.18;93.34;100774.22;5049267;28;20041;-60
2022/11/08 01:56:29;;;;;;;9.23;4.22;;;;;;;11.17;93.34;100765.38;5048248;28;20477;-60
2022/11/08 01:58:56;;;;;;;10.10;4.25;;;;;;;11.18;93.45;100758.25;5036648;28;20032;-60
2022/11/08 02:01:22;;;;;;;8.50;4.22;;;;;;;11.17;93.20;100759.19;5037141;28;20025;-60
2022/11/08 02:03:48;;;;;;;14.48;4.40;;;;;;;11.07;93.45;100762.47;5050571;28;20361;-60
2022/11/08 02:06:14;;;;;;;11.20;5.07;;;;;;;11.08;93.72;100750.03;5052465;28;20029;-60
2022/11/08 02:08:43;;;;;;;9.90;4.32;;;;;;;11.06;93.49;100743.94;5063425;28;20505;-60
2022/11/08 02:11:13;;;;;;;8.70;3.67;;;;;;;11.07;93.67;100741.19;5038255;28;20032;-61
2022/11/08 02:13:41;;;;;;;;;;;;;;;11.14;93.06;100739.81;5032290;28;20099;-60
2022/11/08 02:16:12;;;;;;;8.30;4.13;;;;;;;11.08;93.61;100745.53;5042505;28;19956;-60
2022/11/08 02:18:41;;;;;;;7.30;3.63;;;;;;;11.06;93.47;100742.16;5034231;28;20488;-60
2022/11/08 02:21:07;;;;;;;10.75;4.28;;;;;;;11.03;94.00;100738.81;5033912;28;20061;-61
2022/11/08 02:23:45;;;;;;;8.43;3.65;;;;;;;11.06;93.48;100727.97;5031266;28;20107;-60
2022/11/08 02:26:13;;;;;;;7.13;3.40;;;;;;;11.05;93.82;100732.44;5033654;28;20034;-60
2022/11/08 02:28:39;;;;;;;7.63;4.00;;;;;;;10.94;93.86;100718.16;5038403;28;20033;-60
2022/11/08 02:31:08;;;;;;;7.13;3.88;;;;;;;10.94;94.07;100716.34;5045167;28;20022;-61
2022/11/08 02:33:34;;;;;;;10.88;3.88;;;;;;;10.93;94.29;100713.78;5031187;28;20025;-60
2022/11/08 02:36:01;;;;;;;10.93;4.07;;;;;;;10.94;94.13;100711.03;5039281;28;20027;-60
2022/11/08 02:38:28;;;;;;;12.00;3.67;;;;;;;10.93;94.05;100706.66;5047592;28;20029;-61
2022/11/08 02:40:55;;;;;;;6.70;3.30;;;;;;;10.93;93.89;100706.66;5042743;28;20029;-60
2022/11/08 02:43:22;;;;;;;12.18;4.03;;;;;;;10.92;93.85;100702.31;5048343;28;20033;-60
2022/11/08 02:45:48;;;;;;;10.50;3.90;;;;;;;10.93;93.85;100698.69;5033630;28;20021;-60
2022/11/08 02:48:13;;;;;;;9.02;3.63;;;;;;;10.91;93.98;100696.13;5049171;28;20418;-60
2022/11/08 02:50:39;;;;;;;10.10;3.60;;;;;;;10.91;94.08;100689.94;5039466;28;20492;-60
2022/11/08 02:53:05;;;;;;;11.18;3.80;;;;;;;10.91;93.90;100676.63;5038226;28;20059;-60
2022/11/08 02:55:32;;;;;;;8.25;3.70;;;;;;;10.93;93.40;100687.19;5049794;28;20071;-60
2022/11/08 02:57:57;;;;;;;9.02;3.67;;;;;;;10.87;93.56;100672.47;5035983;28;20037;-60
2022/11/08 03:00:23;;;;;;;9.65;3.88;;;;;;;10.88;93.46;100677.72;5034930;28;20029;-60
2022/11/08 03:02:52;;;;;;;7.47;3.53;;;;;;;10.86;93.65;100657.50;5040079;28;20034;-60
2022/11/08 03:05:19;;;;;;;9.48;3.50;;;;;;;10.95;93.45;100666.66;5044456;28;20418;-60
2022/11/08 03:07:44;;;;;;;11.05;3.72;;;;;;;10.97;93.04;100659.41;5034252;28;20025;-60
2022/11/08 03:10:10;;;;;;;8.23;3.50;;;;;;;10.94;92.89;100652.47;5040550;28;20435;-60
2022/11/08 03:12:36;;;;;;;9.13;3.58;;;;;;;10.94;92.98;100647.16;5047072;28;20489;-60
2022/11/08 03:15:03;;;;;;;8.77;3.67;;;;;;;10.92;92.72;100643.78;5037851;28;20029;-60
2022/11/08 03:17:31;;;;;;;7.53;3.63;;;;;;;10.94;92.59;100644.50;5043822;28;20032;-60
2022/11/08 03:19:56;;;;;;;8.52;3.53;;;;;;;10.91;92.49;100640.25;5031643;28;20064;-60
2022/11/08 03:22:22;;;;;;;9.13;3.00;;;;;;;10.88;92.44;100639.59;5035691;28;20064;-60
2022/11/08 03:24:47;;;;;;;8.50;3.40;;;;;;;10.88;92.46;100647.56;5040082;28;20444;-60
2022/11/08 03:27:14;;;;;;;6.75;3.58;;;;;;;10.87;92.44;100651.19;5030360;28;20062;-60
2022/11/08 03:29:40;;;;;;;9.13;3.42;;;;;;;10.81;92.52;100633.84;5030538;28;20053;-60
2022/11/08 03:32:05;;;;;;;7.53;3.65;;;;;;;10.77;92.79;100637.69;5039485;28;20082;-60
2022/11/08 03:34:32;;;;;;;8.00;3.20;;;;;;;10.72;93.25;100623.81;5036938;28;20104;-60
2022/11/08 03:36:57;;;;;;;10.07;3.40;;;;;;;10.77;93.01;100620.88;5053741;28;20404;-60
2022/11/08 03:39:23;;;;;;;8.85;3.40;;;;;;;10.72;92.96;100622.97;5051259;28;20439;-60
2022/11/08 03:41:49;;;;;;;7.65;3.42;;;;;;;10.69;93.21;100605.41;5040154;28;20033;-60
2022/11/08 03:44:16;;;;;;;7.82;3.78;;;;;;;10.68;92.82;100603.72;5047750;28;20067;-60
2022/11/08 03:46:42;;;;;;;11.75;3.92;;;;;;;10.62;92.88;100593.50;5051188;28;20484;-60
2022/11/08 03:49:07;;;;;;;6.82;3.45;;;;;;;10.53;93.31;100576.34;5047604;28;20088;-60
2022/11/08 03:51:35;;;;;;;8.35;3.90;;;;;;;10.54;93.38;100585.19;5033831;28;20469;-60
2022/11/08 03:54:01;;;;;;;10.15;3.95;;;;;;;10.56;93.13;100584.13;5027515;28;20188;-60
2022/11/08 03:56:26;;;;;;;7.38;3.28;;;;;;;10.53;93.33;100576.34;5039755;28;20044;-60
2022/11/08 03:58:52;;;;;;;9.25;3.85;;;;;;;10.51;93.46;100580.91;5045903;28;20127;-60
2022/11/08 04:01:19;;;;;;;7.45;3.15;;;;;;;10.51;93.08;100572.09;5047050;28;20029;-60
2022/11/08 04:03:47;;;;;;;7.72;4.13;;;;;;;10.52;93.17;100571.13;5037042;28;20038;-60
2022/11/08 04:06:12;;;;;;;7.82;3.97;;;;;;;10.50;92.86;100576.56;5051969;28;20033;-60
2022/11/08 04:08:38;;;;;;;8.27;3.83;;;;;;;10.46;93.04;100565.25;5054140;28;20507;-60
2022/11/08 04:16:32;;;;;;;8.80;3.70;;;;;;;10.43;92.45;100548.66;5036868;28;20044;-60
2022/11/08 04:21:47;;;;;;;12.40;4.57;;;;;;;10.42;92.31;100547.81;5036874;28;20060;-60
2022/11/08 04:24:12;;;;;;;10.32;4.72;;;;;;;10.40;92.17;100543.56;5041366;28;20037;-60
2022/11/08 04:26:39;;;;;;;12.50;4.65;;;;;;;10.37;92.44;100539.28;5035461;28;20446;-60
2022/11/08 04:29:05;;;;;;;16.83;5.47;;;;;;;10.39;92.33;100542.72;5044345;28;20057;-60
2022/11/08 04:31:30;;;;;;;10.25;5.20;;;;;;;10.40;91.91;100535.56;5033284;28;20496;-60
2022/11/08 04:33:56;;;;;;;16.65;5.07;;;;;;;10.41;91.98;100532.81;5033200;28;20513;-60
2022/11/08 04:36:21;;;;;;;16.58;5.07;;;;;;;10.39;91.41;100525.91;5019382;28;20033;-60
2022/11/08 04:38:50;;;;;;;12.02;5.07;;;;;;;10.39;91.34;100518.78;5048437;28;20510;-60
2022/11/08 04:41:20;;;;;;;14.40;4.57;;;;;;;10.36;91.38;100508.34;5032364;28;20029;-60
2022/11/08 04:43:46;;;;;;;14.40;5.28;;;;;;;10.36;90.60;100505.69;5032091;28;20030;-60
2022/11/08 04:46:16;;;;;;;9.23;4.20;;;;;;;10.40;90.10;100512.50;5033337;28;20333;-60
2022/11/08 04:48:45;;;;;;;9.45;4.38;;;;;;;10.42;89.60;100515.06;5039107;28;20033;-60
2022/11/08 04:51:15;;;;;;;10.50;4.43;;;;;;;10.44;89.57;100503.38;5050795;28;20103;-60
2022/11/08 04:53:41;;;;;;;8.82;4.38;;;;;;;10.42;89.34;100485.81;5032873;28;20075;-60
2022/11/08 04:56:08;;;;;;;9.25;4.05;;;;;;;10.40;89.35;100490.38;5041433;28;20024;-60
2022/11/08 04:58:43;;;;;;;11.43;4.25;;;;;;;10.36;89.04;100497.72;5051485;28;20048;-60
2022/11/08 05:01:11;;;;;;;11.00;4.43;;;;;;;10.35;89.19;100490.72;5034542;28;20053;-60
2022/11/08 05:03:37;;;;;;;8.35;4.03;;;;;;;10.37;89.10;100490.59;5050910;28;20029;-60
2022/11/08 05:06:04;;;;;;;14.48;4.65;;;;;;;10.31;88.89;100488.34;5047390;28;20112;-60
2022/11/08 05:08:30;;;;;;;12.75;4.57;;;;;;;10.26;89.09;100482.44;5052909;28;20025;-60
2022/11/08 05:11:08;;;;;;;11.68;4.55;;;;;;;10.26;88.96;100480.66;5050464;28;20044;-60
2022/11/08 05:13:34;;;;;;;10.75;4.05;;;;;;;10.28;88.75;100476.13;5037923;28;20049;-61
2022/11/08 05:16:02;;;;;;;9.30;4.32;;;;;;;10.26;88.62;100479.78;5048426;28;20040;-60
2022/11/08 05:18:28;;;;;;;11.25;4.40;;;;;;;10.24;88.06;100482.56;5061566;28;20037;-60
2022/11/08 05:23:40;;;;;;;8.45;4.05;;;;;;;10.24;87.66;100478.09;5044583;28;20522;-60
2022/11/08 05:26:10;;;;;;;9.02;3.83;;;;;;;10.20;88.16;100481.91;5051306;28;20067;-60
2022/11/08 05:28:36;;;;;;;9.55;4.78;;;;;;;10.21;87.59;100464.19;5046652;28;20503;-59
2022/11/08 05:31:02;;;;;;;10.88;4.57;;;;;;;10.18;87.71;100462.56;5033387;28;20116;-60
2022/11/08 05:33:31;;;;;;;9.55;4.63;;;;;;;10.18;87.49;100457.25;5032162;28;20053;-60
2022/11/08 05:36:01;;;;;;;15.13;4.55;;;;;;;10.24;87.15;100458.66;5048453;28;20107;-60
2022/11/08 05:38:28;;;;;;;12.05;4.28;;;;;;;10.20;87.18;100457.13;5034378;28;20033;-60
2022/11/08 05:40:59;;;;;;;11.98;4.22;;;;;;;10.19;86.99;100458.94;5031776;28;20037;-60
2022/11/08 05:43:25;;;;;;;9.82;4.25;;;;;;;10.17;86.85;100454.69;5050826;28;20033;-60
2022/11/08 05:45:51;;;;;;;8.93;4.47;;;;;;;10.16;87.27;100464.47;5039631;28;20040;-60
2022/11/08 05:48:19;;;;;;;10.20;4.28;;;;;;;10.17;86.89;100462.66;5038109;28;20029;-60
2022/11/08 05:50:46;;;;;;;9.77;4.43;;;;;;;10.17;86.36;100457.34;5044478;28;20079;-60
2022/11/08 05:53:11;;;;;;;8.43;5.05;;;;;;;10.16;86.18;100455.66;5051359;28;20484;-60
2022/11/08 05:55:37;;;;;;;8.80;4.53;;;;;;;10.17;86.16;100460.00;5043542;28;20028;-60
2022/11/08 05:58:02;;;;;;;10.77;4.35;;;;;;;10.17;86.14;100457.34;5032208;28;20022;-60
2022/11/08 06:00:30;;;;;;;13.32;5.10;;;;;;;10.15;86.31;100456.63;5050175;28;20212;-60
2022/11/08 06:02:56;;;;;;;12.55;4.57;;;;;;;10.11;86.07;100453.28;5049930;28;20031;-60
2022/11/08 06:05:21;;;;;;;15.75;4.85;;;;;;;10.14;85.97;100441.63;5040982;28;20116;-60
2022/11/08 06:07:47;;;;;;;8.07;4.57;;;;;;;10.13;85.92;100445.25;5039357;28;20033;-60
2022/11/08 06:10:13;;;;;;;12.82;4.93;;;;;;;10.08;85.98;100436.72;5050903;28;20033;-60
2022/11/08 06:12:39;;;;;;;11.25;4.90;;;;;;;10.07;85.77;100440.34;5034564;28;20029;-60
2022/11/08 06:15:06;;;;;;;9.35;4.93;;;;;;;10.04;86.42;100438.75;5030843;28;20026;-60
2022/11/08 06:17:32;;;;;;;10.60;5.18;;;;;;;10.06;85.66;100450.13;5046409;28;20047;-60
2022/11/08 06:19:57;;;;;;;13.88;5.30;;;;;;;10.04;85.89;100444.06;5041659;28;20036;-60
2022/11/08 06:22:25;;;;;;;12.95;4.82;;;;;;;10.04;85.98;100444.06;5042822;28;20033;-60
2022/11/08 06:24:50;;;;;;;15.68;4.97;;;;;;;10.02;85.75;100444.13;5029678;28;20033;-60
2022/11/08 06:27:16;;;;;;;9.52;4.75;;;;;;;10.00;85.66;100437.25;5031277;28;20029;-60
2022/11/08 06:29:41;;;;;;;9.20;5.68;;;;;;;10.01;85.82;100445.09;5031333;28;20081;-60
2022/11/08 06:32:09;;;;;;;8.18;4.75;;;;;;;9.99;85.86;100447.00;5035590;28;20124;-60
2022/11/08 06:34:34;;;;;;;16.42;4.68;;;;;;;9.97;85.95;100453.38;5030775;28;20418;-60
2022/11/08 06:37:03;;;;;;;10.15;4.50;;;;;;;9.97;85.93;100448.06;5036036;28;20087;-60
2022/11/08 06:39:29;;;;;;;9.90;4.70;;;;;;;9.95;85.63;100447.34;5030047;28;20029;-60
2022/11/08 06:41:55;;;;;;;10.57;4.85;;;;;;;9.91;85.73;100449.34;5041362;28;20024;-60
2022/11/08 06:44:20;;;;;;;9.82;4.15;;;;;;;9.93;85.59;100450.06;5013524;28;20029;-60
2022/11/08 06:46:46;;;;;;;8.73;4.15;;;;;;;9.90;85.74;100452.09;5037269;28;20032;-60
2022/11/08 06:49:11;;;;;;;9.07;5.43;;;;;;;9.91;85.77;100440.50;5038011;28;20063;-60
2022/11/08 06:51:37;;;;;;;9.13;4.03;;;;;;;9.89;85.60;100459.22;5029605;28;20392;-60
2022/11/08 06:54:05;;;;;;;10.02;4.60;;;;;;;9.92;85.42;100444.88;5034388;28;20507;-60
2022/11/08 06:56:31;;;;;;;7.03;3.90;;;;;;;9.91;85.25;100465.28;5041986;28;20378;-60
2022/11/08 06:58:56;;;;;;;7.10;4.13;;;;;;;9.92;84.83;100451.03;5031723;28;20029;-60
2022/11/08 07:01:22;;;;;;;8.48;4.47;;;;;;;9.88;85.36;100444.25;5035611;28;20045;-60
2022/11/08 07:03:48;;;;;;;14.25;4.32;;;;;;;9.96;84.71;100457.00;5031151;28;20050;-60
2022/11/08 07:06:15;;;;;;;7.78;3.80;;;;;;;10.02;84.61;100465.41;5036527;28;20248;-60
2022/11/08 07:08:41;;;;;;;8.95;3.83;;;;;;;9.99;84.28;100467.41;5040168;28;20124;-60
2022/11/08 07:11:06;;;;;;;8.48;4.00;;;;;;;9.96;84.41;100468.47;5050101;28;20410;-60
2022/11/08 07:13:32;;;;;;;8.60;3.95;;;;;;;10.01;84.08;100465.50;5033990;28;20030;-60
2022/11/08 07:15:58;;;;;;;5.72;3.60;;;;;;;10.01;84.18;100468.16;5036209;28;20090;-60
2022/11/08 07:18:25;;;;;;;6.68;3.90;;;;;;;10.02;84.07;100470.72;5048426;28;20040;-60
2022/11/08 07:20:51;;;;;;;7.65;3.50;;;;;;;10.05;84.09;100469.66;5035938;28;20029;-60
2022/11/08 07:23:17;;;;;;;5.43;3.67;;;;;;;10.09;84.34;100468.50;5038860;28;20389;-60
2022/11/08 07:25:42;;;;;;;7.53;3.45;;;;;;;10.11;83.66;100455.09;5049190;28;20032;-60
2022/11/08 07:28:18;;;;;;;7.03;3.58;;;;;;;10.11;83.91;100457.78;5038533;28;20388;-60
2022/11/08 07:30:45;;;;;;;5.68;3.60;;;;;;;10.16;83.35;100463.63;5034096;28;20120;-60
2022/11/08 07:33:11;;;;;;;6.93;3.63;;;;;;;10.10;83.42;100456.06;5040642;28;20389;-60
2022/11/08 07:35:37;;;;;;;3.65;3.35;;;;;;;10.20;83.07;100465.13;5045122;28;20017;-60
2022/11/08 07:38:04;;;;;;;4.28;3.28;;;;;;;10.26;82.40;100463.84;5047575;28;20365;-60
2022/11/08 07:40:30;;;;;;;4.55;3.38;;;;;;;10.31;81.78;100457.31;5047263;28;20391;-60
2022/11/08 07:43:01;;;;;;;3.42;2.90;;;;;;;10.36;81.35;100460.50;5050137;28;20018;-60
2022/11/08 07:45:26;;;;;;;5.20;3.30;;;;;;;10.41;81.44;100458.38;5050540;28;20060;-60
2022/11/08 07:48:08;;;;;;;7.32;3.10;;;;;;;10.51;80.37;100460.41;5038377;28;20290;-60
2022/11/08 07:50:33;;;;;;;6.97;2.70;;;;;;;10.60;79.50;100447.31;5050730;28;20082;-60
2022/11/08 07:53:01;;;;;;;5.18;2.95;;;;;;;10.69;79.08;100456.47;5045850;28;20065;-60
2022/11/08 07:55:27;;;;;;;4.05;3.45;;;;;;;10.78;78.34;100452.31;5028910;28;20018;-60
2022/11/08 07:58:00;;;;;;;4.72;3.00;;;;;;;10.84;78.62;100455.38;5052103;28;20033;-60
2022/11/08 08:00:25;;;;;;;6.13;3.10;;;;;;;10.93;77.22;100453.88;5034881;28;20025;-60
2022/11/08 08:02:56;;;;;;;4.55;2.85;;;;;;;11.07;76.08;100459.06;5033619;28;20033;-60
2022/11/08 08:05:22;;;;;;;6.18;2.58;;;;;;;11.15;76.11;100455.88;5033682;28;20034;-60
2022/11/08 08:07:49;;;;;;;3.47;2.53;;;;;;;11.19;75.32;100433.38;5042739;28;20032;-60
2022/11/08 08:10:14;;;;;;;4.88;3.13;;;;;;;11.31;75.30;100458.28;5028503;28;20030;-60
2022/11/08 08:12:40;;;;;;;7.00;2.75;;;;;;;11.38;74.84;100451.53;5047328;28;20108;-60
2022/11/08 08:15:06;;;;;;;5.68;2.83;;;;;;;11.47;73.57;100444.69;5039876;28;20029;-60
2022/11/08 08:17:31;;;;;;;5.45;3.00;;;;;;;11.49;73.41;100435.63;5032298;28;20472;-60
2022/11/08 08:19:59;;;;;;;3.45;2.72;;;;;;;11.58;73.45;100458.91;5040323;28;20124;-60
2022/11/08 08:22:24;;;;;;;8.43;2.92;;;;;;;11.60;73.39;100464.97;5040845;28;20468;-60
2022/11/08 08:24:50;;;;;;;2.88;2.58;;;;;;;11.59;73.62;100454.47;5043082;28;20104;-60
2022/11/08 08:27:15;;;;;;;4.63;2.72;;;;;;;11.69;72.63;100466.13;5051527;28;20129;-60
2022/11/08 08:29:41;;;;;;;9.85;2.65;;;;;;;11.74;72.13;100465.78;5050214;28;20052;-60
2022/11/08 08:32:07;;;;;;;5.38;3.13;;;;;;;11.75;72.87;100476.31;5034044;28;20034;-60
2022/11/08 08:34:34;;;;;;;4.80;2.80;;;;;;;11.73;72.35;100480.06;5049950;28;20060;-60
2022/11/08 08:37:00;;;;;;;5.13;3.05;;;;;;;11.77;72.21;100477.06;5053040;28;20044;-60
2022/11/08 08:39:25;;;;;;;5.05;2.88;;;;;;;11.87;71.78;100493.25;5050786;28;20484;-60
2022/11/08 08:41:51;;;;;;;4.95;2.75;;;;;;;11.95;71.86;100487.34;5049932;28;20094;-60
2022/11/08 08:44:16;;;;;;;5.13;2.50;;;;;;;11.97;71.39;100466.75;5045437;28;20083;-60
2022/11/08 08:46:42;;;;;;;5.55;2.83;;;;;;;12.05;70.60;100469.69;5031186;28;20365;-60
2022/11/08 08:49:08;;;;;;;4.88;2.75;;;;;;;12.06;71.51;100466.09;5051225;28;20114;-61
2022/11/08 08:51:33;;;;;;;5.57;3.00;;;;;;;12.10;70.23;100446.22;5036793;28;20021;-60
2022/11/08 08:54:01;;;;;;;5.68;2.55;;;;;;;12.17;71.30;100459.91;5034475;28;20463;-60
2022/11/08 08:56:27;;;;;;;3.35;2.58;;;;;;;12.21;70.67;100458.75;5046920;28;20037;-60
2022/11/08 08:58:52;;;;;;;4.95;3.38;;;;;;;12.25;70.57;100453.03;5042712;28;20025;-60
2022/11/08 09:01:18;;;;;;;7.55;3.28;;;;;;;12.25;70.46;100450.38;5052144;28;20376;-60
2022/11/08 09:03:43;;;;;;;3.97;2.70;;;;;;;12.32;70.35;100450.75;5043169;28;20108;-60
2022/11/08 09:06:09;;;;;;;3.67;3.03;;;;;;;12.35;70.52;100439.84;5037338;28;20036;-60
2022/11/08 09:08:34;;;;;;;3.75;2.72;;;;;;;12.41;69.53;100439.41;5050664;28;20035;-60
2022/11/08 09:11:00;;;;;;;4.10;3.00;;;;;;;12.45;69.88;100432.84;5050691;28;20040;-60
2022/11/08 09:13:32;;;;;;;2.90;2.70;;;;;;;12.48;69.77;100429.94;5050759;28;20029;-59
2022/11/08 09:16:00;;;;;;;3.15;2.50;;;;;;;12.53;69.39;100448.25;5039987;28;20025;-60
2022/11/08 09:18:25;;;;;;;3.90;2.60;;;;;;;12.53;69.38;100453.59;5049654;28;20063;-60
2022/11/08 09:20:51;;;;;;;5.18;2.63;;;;;;;12.56;69.43;100449.81;5048681;28;20472;-60
2022/11/08 09:23:17;;;;;;;5.50;3.00;;;;;;;12.59;69.78;100449.56;5051039;28;20029;-60
2022/11/08 09:25:45;;;;;;;4.45;2.80;;;;;;;12.55;69.08;100427.63;5047747;28;20044;-60
2022/11/08 09:28:10;;;;;;;4.32;2.90;;;;;;;12.57;69.79;100432.88;5033880;28;20477;-60
2022/11/08 09:30:36;;;;;;;5.57;2.63;;;;;;;12.60;69.90;100437.97;5019684;28;20052;-60
2022/11/08 09:33:01;;;;;;;4.53;2.60;;;;;;;12.60;69.94;100425.47;5034604;28;20104;-60
2022/11/08 09:35:27;;;;;;;3.50;2.88;;;;;;;12.62;69.38;100444.03;5051734;28;20091;-60
2022/11/08 09:37:53;;;;;;;5.50;2.67;;;;;;;12.65;68.92;100436.63;5039904;28;20484;-60
2022/11/08 09:40:49;;;;;;;8.45;2.75;;;;;;;12.72;69.78;100450.34;5038974;28;20055;-60
2022/11/08 09:43:39;;;;;;;4.75;2.95;;;;;;;12.80;69.48;100437.25;5047420;28;20419;-60
2022/11/08 09:46:10;;;;;;;5.78;2.72;;;;;;;12.88;69.65;100436.63;5051622;28;20067;-60
2022/11/08 09:48:43;;;;;;;4.82;2.97;;;;;;;12.94;68.98;100433.47;5047034;28;20055;-60
2022/11/08 09:51:19;;;;;;;6.70;3.58;;;;;;;13.08;68.27;100445.72;5038021;28;20043;-60
2022/11/08 09:53:53;;;;;;;4.93;2.70;;;;;;;13.13;68.41;100451.53;5031995;28;20025;-60
2022/11/08 09:56:34;;;;;;;3.67;2.70;;;;;;;13.27;68.54;100464.66;5030085;28;20071;-60
2022/11/08 09:59:17;;;;;;;3.10;2.50;;;;;;;13.40;67.19;100459.16;5041144;28;20036;-60
2022/11/08 10:01:43;;;;;;;4.93;2.50;;;;;;;13.56;66.14;100456.09;5051684;28;20025;-60
2022/11/08 10:04:16;;;;;;;4.05;2.50;;;;;;;13.73;65.93;100457.38;5051804;28;20541;-60
2022/11/08 10:07:44;;;;;;;7.07;2.92;;;;;;;13.95;65.93;100448.44;5050425;28;20028;-60
2022/11/08 10:10:30;;;;;;;5.38;2.35;;;;;;;14.08;65.13;100452.59;5013562;28;20033;-60
2022/11/08 10:13:07;;;;;;;6.72;2.92;;;;;;;14.07;64.84;100464.28;5009940;28;20107;-60
2022/11/08 10:16:09;;;;;;;4.55;2.47;;;;;;;14.15;65.13;100457.44;5028667;28;20029;-60
2022/11/08 10:19:05;;;;;;;7.05;2.72;;;;;;;14.15;65.17;100466.34;5039635;28;20041;-60
2022/11/08 10:21:48;;;;;;;4.03;2.72;;;;;;;14.12;64.16;100481.78;5050334;28;20109;-60
2022/11/08 10:24:46;;;;;;;4.57;2.63;;;;;;;14.07;63.67;100469.66;5051899;28;20107;-60
2022/11/08 10:27:21;;;;;;;3.50;2.67;;;;;;;13.99;63.89;100473.94;5051170;28;20037;-60
2022/11/08 10:29:56;;;;;;;8.15;2.80;;;;;;;14.02;63.69;100479.03;5045886;28;20045;-60
2022/11/08 10:32:25;;;;;;;6.07;2.35;;;;;;;13.90;64.46;100478.22;5031685;28;20021;-60
2022/11/08 10:35:16;;;;;;;4.18;2.55;;;;;;;13.94;65.41;100481.47;5031735;28;20075;-60
2022/11/08 10:37:45;;;;;;;4.60;2.50;;;;;;;13.89;65.84;100473.88;5050185;28;20160;-60
2022/11/08 10:40:32;;;;;;;5.82;2.80;;;;;;;13.88;64.46;100473.97;5049754;28;20032;-60
2022/11/08 10:43:16;;;;;;;6.15;2.70;;;;;;;13.86;65.03;100490.16;5049251;28;20028;-60
2022/11/08 10:45:42;;;;;;;6.07;2.80;;;;;;;13.84;65.14;100487.59;5046964;28;20034;-60
2022/11/08 10:48:13;;;;;;;5.18;2.75;;;;;;;13.82;64.94;100478.00;5031606;28;20095;-60
2022/11/08 10:50:44;;;;;;;5.50;2.75;;;;;;;13.88;65.00;100474.81;5031480;28;20029;-60
2022/11/08 10:53:24;;;;;;;6.93;2.45;;;;;;;13.93;65.25;100474.44;5031396;28;20104;-60
2022/11/08 10:55:54;;;;;;;6.65;2.70;;;;;;;13.99;64.14;100471.25;5039177;28;20040;-60
2022/11/08 10:58:28;;;;;;;7.45;2.90;;;;;;;14.04;64.48;100471.72;5051038;28;20025;-60
2022/11/08 11:01:12;;;;;;;5.28;2.60;;;;;;;14.07;64.42;100472.31;5050918;28;20029;-60
2022/11/08 11:03:38;;;;;;;7.38;3.03;;;;;;;14.05;63.53;100455.53;5051427;28;20546;-60
2022/11/08 11:06:06;;;;;;;5.70;2.80;;;;;;;14.08;62.70;100465.13;5047692;28;20033;-60
2022/11/08 11:08:32;;;;;;;3.67;2.88;;;;;;;14.07;63.12;100450.94;5035901;28;20124;-60
2022/11/08 11:11:24;;;;;;;3.63;2.78;;;;;;;14.03;64.43;100462.00;5029273;28;20104;-60
2022/11/08 11:14:15;;;;;;;5.00;2.50;;;;;;;14.01;65.24;100435.41;5013751;28;20396;-60
2022/11/08 11:16:53;;;;;;;4.93;2.78;;;;;;;13.97;64.73;100431.28;5041818;28;20052;-60
2022/11/08 11:19:18;;;;;;;7.68;2.50;;;;;;;14.01;64.72;100431.88;5047047;28;20036;-60
2022/11/08 11:22:00;;;;;;;5.35;2.70;;;;;;;14.03;64.96;100445.94;5049325;28;20033;-60
2022/11/08 11:24:26;;;;;;;4.53;2.75;;;;;;;14.04;64.37;100431.63;5049958;28;20043;-60
2022/11/08 11:27:04;;;;;;;6.78;2.75;;;;;;;14.08;65.04;100422.34;5049625;28;20544;-60
2022/11/08 11:29:35;;;;;;;6.28;2.45;;;;;;;14.09;64.31;100411.53;5038624;28;20107;-60
2022/11/08 11:32:31;;;;;;;4.97;2.90;;;;;;;14.16;64.50;100403.84;5031271;28;20048;-60
2022/11/08 11:35:00;;;;;;;4.13;2.50;;;;;;;14.23;64.94;100398.81;5031167;28;20033;-60
2022/11/08 11:37:42;;;;;;;4.18;2.50;;;;;;;14.35;64.34;100413.78;5032925;28;20127;-60
2022/11/08 11:40:36;;;;;;;6.10;2.65;;;;;;;14.45;63.79;100425.41;5050312;28;20028;-61
2022/11/08 11:43:45;;;;;;;4.75;2.33;;;;;;;14.50;63.93;100430.34;5050856;28;20391;-60
2022/11/08 11:46:10;;;;;;;;;;;;;;;14.52;64.10;100412.38;5028472;28;20033;-60
2022/11/08 11:48:44;;;;;;;8.23;2.83;;;;;;;14.45;63.27;100413.88;5041364;28;19975;-60
2022/11/08 11:51:10;;;;;;;4.55;2.40;;;;;;;14.39;63.21;100401.03;5029443;28;20044;-60
2022/11/08 11:53:36;;;;;;;6.32;2.67;;;;;;;14.44;63.79;100398.78;5032131;28;20021;-60